Terminal Aerodrome Forecast
Issued by NWS Wilmington, OH

Current Version | Previous Version | Text Only | Print | Product List | Glossary Off
Versions: 1 2 3 4 5 6 7 8 9 10 11 12 13 14 15 16 17 18

000
FTUS41 KILN 251126
TAFDAY
TAF
KDAY 251126Z 2512/2612 19012G21KT P6SM SCT140 BKN180 OVC230
     FM252300 14007KT P6SM BKN120
     FM260700 14007KT P6SM -SHRA SCT040 OVC080=

USA.gov is the U.S. government's official web portal to all federal, state and local government web resources and services.